Ana Sayfa
METAR-TAF:

METAR-TAF

Havaalanları :

Rexburg-Madison County Airport

Rexburg, Idaho, Amerika Birleşik Devletleri

Enlem: 43-49-54N, Boylam: 111-48-22W, yükseklik: 1481 m

Güncel hava durumu gözlemi

Rapor saat 01:53 UTC de 1 saat ve 8 dakika önce yapıldı.
Rüzgar doğudan 3 kt
Sıcaklık 6°C
Nem 56%
Basınç 1016 hPa
Görüş mesafesi: 16.1 km
5000 ft yükseklikte parçalı çok bulutlu

METAR: KRXE 190153Z AUTO 09003KT 10SM BKN050 06/M02 A2999 RMK AO2 SLP171 T00561017

Saat: 20:01 (03:01 UTC)


TAF: eksik

4.000'den fazla havaalanı için hava durumu gözlemleri ve tahminleri (METAR ve TAF raporları).

Kullanılabilir istasyonlar harita üzerinde sarı ve kırmızı noktalarla gösterilir.

İstasyonun adını görmek için fareyi noktanın üzerinde gezdirin.

Sonrasında hava gözlem ve tahminlerini görmek için tıklayın.

Haritayı değiştirmek için: yaklaştırmak için siyah artı işaretli yeşil düğmeye ve uzaklaştırmak için de eksi işaretli düğmeye hızla tıklayın; bitişik haritalar için yeşil okları kullanın.


METAR-TAF: